Nearby METAR Reports

 

KIMT - Iron Mountain, Michigan, USA
Distance from station: 0 29mi, 47km
Updated: Mon, 11-Nov-2019 8:54pm CST
Clear
Clear
 Wind from WNW
Wind: WNW 10 mph , 17 km/h, Gust: 21 mph , 33 km/h
Temperature: 10°F , -12°C
Wind Chill: -4°F , -20°C
Dew Point: 1°F , -17°C
Humidity: 67%
Barometer: 30.32 inHg , 1026.8 hPa
Clouds: Clear
Visibility: 10 miles , 16 km
2019/11/12 02:54 KIMT 120254Z AUTO 30009G18KT 10SM CLR M12/M17 A3032 RMK AO2 SLP296 60000 T11221172 51005
KMNM - Menominee, Michigan, USA
Distance from station: SE 31mi, 51km
Updated: Mon, 11-Nov-2019 8:56pm CST
Mostly cloudy
Mostly cloudy
 Wind from NNW
Wind: NNW 10 mph , 17 km/h, Gust: 17 mph , 28 km/h
Temperature: 16°F , -9°C
Wind Chill: 4°F , -16°C
Dew Point: 1°F , -17°C
Humidity: 53%
Barometer: 30.36 inHg , 1028.1 hPa
Clouds: Mostly cloudy
Visibility: 10 miles , 16 km
Cloud details: Mostly cloudy 11000 ft
2019/11/12 02:56 KMNM 120256Z AUTO 33009G15KT 10SM BKN110 M09/M17 A3036 RMK AO2 SLP294 T10941167 51007 FZRANO $
 
KOCQ - Oconto, Wisconsin, USA
Distance from station: SSE 38mi, 61km
Updated: Mon, 11-Nov-2019 9:35pm CST
Partly cloudy
Partly cloudy
 Wind from NW
Wind: NW 12 mph , 19 km/h, Gust: 21 mph , 33 km/h
Temperature: 14°F , -10°C
Wind Chill: 0°F , -18°C
Dew Point: 3°F , -16°C
Humidity: 62%
Barometer: 30.38 inHg , 1028.8 hPa
Clouds: Partly cloudy
Visibility: 10 miles , 16 km
Cloud details: Partly cloudy 10000 ft
2019/11/12 03:35 KOCQ 120335Z AUTO 32010G18KT 10SM SCT100 M10/M16 A3038 RMK AO1 T11051163
KEZS - Shawano Muni, Wisconsin, USA
Distance from station: SSW 48mi, 77km
Updated: Mon, 11-Nov-2019 9:35pm CST
Clear
Clear
 Wind from NW
Wind: NW 7 mph , 11 km/h
Temperature: 14°F , -10°C
Wind Chill: 4°F , -16°C
Dew Point: 1°F , -17°C
Humidity: 57%
Barometer: 30.40 inHg , 1029.5 hPa
Clouds: Clear
Visibility: 10 miles , 16 km
2019/11/12 03:35 KEZS 120335Z AUTO 31006KT 10SM CLR M10/M17 A3040 RMK AO2 T11051173
 
KAIG - Antigo/Langlade, Wisconsin, USA
Distance from station: WSW 51mi, 82km
Updated: Mon, 11-Nov-2019 9:35pm CST
Clear
Clear
 Wind from NW
Wind: NW 12 mph , 19 km/h, Gust: 17 mph , 28 km/h
Temperature: 5°F , -15°C
Wind Chill: -11°F , -24°C
Dew Point: -0°F , -18°C
Humidity: 78%
Barometer: 30.36 inHg , 1028.1 hPa
Clouds: Clear
Visibility: 10 miles , 16 km
2019/11/12 03:35 KAIG 120335Z AUTO 31010G15KT 10SM CLR M15/M18 A3036 RMK AO2 T11461185
KSUE - Sturgeon Bay, Wisconsin, USA
Distance from station: SE 51mi, 82km
Updated: Mon, 11-Nov-2019 8:56pm CST
Overcast
Overcast
 Wind from NW
Wind: NW 21 mph , 33 km/h, Gust: 26 mph , 43 km/h
Temperature: 16°F , -9°C
Wind Chill: -1°F , -18°C
Dew Point: 5°F , -15°C
Humidity: 62%
Barometer: 30.34 inHg , 1027.4 hPa
Clouds: Overcast
Visibility: 10 miles , 16 km
Cloud details: Mostly cloudy 3600 ft
Mostly cloudy 4400 ft
Overcast 12000 ft
2019/11/12 02:56 KSUE 120256Z AUTO 32018G23KT 10SM BKN036 BKN044 OVC120 M09/M15 A3034 RMK AO2 PK WND 32026/0211 SLP285 T10891150 51009 FZRANO $
 
KESC - Escanaba, Michigan, USA
Distance from station: ENE 56mi, 90km
Updated: Mon, 11-Nov-2019 8:56pm CST
Mostly cloudy
Mostly cloudy
 Wind from NW
Wind: NW 14 mph , 22 km/h
Temperature: 16°F , -9°C
Wind Chill: 2°F , -17°C
Dew Point: 5°F , -15°C
Humidity: 62%
Barometer: 30.33 inHg , 1027.1 hPa
Clouds: Mostly cloudy
Visibility: 10 miles , 16 km
Cloud details: Few Clouds 5500 ft
Mostly cloudy 9000 ft
2019/11/12 02:56 KESC 120256Z AUTO 31012KT 10SM FEW055 BKN090 M09/M15 A3033 RMK AO2 SLP287 T10941150 51003 FZRANO
KCLI - Clintonville, Wisconsin, USA
Distance from station: SSW 62mi, 99km
Updated: Mon, 11-Nov-2019 9:35pm CST
Clear
Clear
 Wind from NW
Wind: NW 14 mph , 22 km/h, Gust: 17 mph , 28 km/h
Temperature: 12°F , -11°C
Wind Chill: -4°F , -20°C
Dew Point: -0°F , -18°C
Humidity: 57%
Barometer: 30.41 inHg , 1029.8 hPa
Clouds: Clear
Visibility: 10 miles , 16 km
2019/11/12 03:35 KCLI 120335Z AUTO 32012G15KT 10SM CLR M11/M18 A3041 RMK AO2 T11101181
 
KGRB - Ashwaubenon, Wisconsin, USA
Distance from station: S 63mi, 102km
Updated: Mon, 11-Nov-2019 8:53pm CST
Clear
Clear
 Wind from NW
Wind: NW 15 mph , 24 km/h
Temperature: 16°F , -9°C
Wind Chill: 1°F , -17°C
Dew Point: 1°F , -17°C
Humidity: 53%
Barometer: 30.38 inHg , 1028.8 hPa
Clouds: Clear
Visibility: 10 miles , 16 km
2019/11/12 02:53 KGRB 120253Z 32013KT 10SM CLR M09/M17 A3038 RMK AO2 SLP302 T10941167 51011 $
KEGV - Eagle River, Wisconsin, USA
Distance from station: NW 66mi, 107km
Updated: Mon, 11-Nov-2019 9:35pm CST
Light snow, Overcast
Light snow, Overcast
 Wind from WNW
Wind: WNW 8 mph , 13 km/h
Temperature: 7°F , -14°C
Wind Chill: -6°F , -21°C
Dew Point: 3°F , -16°C
Humidity: 85%
Barometer: 30.34 inHg , 1027.4 hPa
Summary: Light Snow
Clouds: Overcast
Visibility: 2 miles , 3 km
Cloud details: Partly cloudy 1200 ft
Mostly cloudy 2100 ft
Overcast 2700 ft
2019/11/12 03:35 KEGV 120335Z AUTO 29007KT 2SM -SN SCT012 BKN021 OVC027 M14/M16 A3034 RMK AO2 T11381165
 
KRHI - Rhinelander, Wisconsin, USA
Distance from station: WNW 68mi, 109km
Updated: Mon, 11-Nov-2019 8:53pm CST
Clear
Clear
 Wind from WNW
Wind: WNW 9 mph , 15 km/h
Temperature: 3°F , -16°C
Wind Chill: -11°F , -24°C
Dew Point: -2°F , -19°C
Humidity: 78%
Barometer: 30.36 inHg , 1028.1 hPa
Clouds: Clear
Visibility: 10 miles , 16 km
2019/11/12 02:53 KRHI 120253Z AUTO 29008KT 10SM CLR M16/M19 A3036 RMK AO2 SLP320 T11561189 51007 $
KLNL - Land O Lakes, Wisconsin, USA
Distance from station: NW 74mi, 119km
Updated: Mon, 11-Nov-2019 9:35pm CST
Light snow, Mostly cloudy
Light snow, Mostly cloudy
 Wind from NW
Wind: NW 6 mph , 9 km/h
Temperature: 7°F , -14°C
Wind Chill: -4°F , -20°C
Dew Point: 1°F , -17°C
Humidity: 78%
Barometer: 30.35 inHg , 1027.8 hPa
Summary: Light Snow
Clouds: Mostly cloudy
Visibility: 7 miles , 11 km
Cloud details: Partly cloudy 1700 ft
Partly cloudy 2600 ft
Mostly cloudy 3200 ft
2019/11/12 03:35 KLNL 120335Z AUTO 32005KT 7SM -SN SCT017 SCT026 BKN032 M14/M17 A3035 RMK AO2 T11381166
 
KSAW - Gwinn/Sawyer, Michigan, USA
Distance from station: NNE 74mi, 120km
Updated: Mon, 11-Nov-2019 9:38pm CST
Overcast
Overcast
 Wind from NW
Wind: NW 14 mph , 22 km/h
Temperature: 14°F , -10°C
Wind Chill: -1°F , -18°C
Dew Point: 7°F , -14°C
Humidity: 73%
Barometer: 30.28 inHg , 1025.4 hPa
Clouds: Overcast
Visibility: 10 miles , 16 km
Cloud details: Partly cloudy 6000 ft
Overcast 7000 ft
2019/11/12 03:38 KSAW 120338Z AUTO 32012KT 10SM SCT060 OVC070 M10/M14 A3028 RMK AO2 T11051140